sensor_id;sensor_type;location;lat;lon;timestamp;pressure;altitude;pressure_sealevel;temperature;humidity
59417;BME280;45222;52.458;20.914;2023-05-10T19:16:01;101206.05;;;11.12;40.46
59417;BME280;45222;52.458;20.914;2023-05-10T19:19:49;101203.75;;;10.97;41.12
59417;BME280;45222;52.458;20.914;2023-05-10T19:23:38;101202.27;;;10.85;41.41
59417;BME280;45222;52.458;20.914;2023-05-10T19:27:27;101203.06;;;10.72;42.67
59417;BME280;45222;52.458;20.914;2023-05-10T19:31:16;101207.15;;;10.57;43.28
59417;BME280;45222;52.458;20.914;2023-05-10T19:35:04;101205.71;;;10.41;44.13
59417;BME280;45222;52.458;20.914;2023-05-10T19:38:52;101210.17;;;10.24;45.34
59417;BME280;45222;52.458;20.914;2023-05-10T19:42:40;101211.98;;;10.07;46.21
59417;BME280;45222;52.458;20.914;2023-05-10T19:46:28;101211.13;;;9.90;45.95
59417;BME280;45222;52.458;20.914;2023-05-10T19:50:16;101211.43;;;9.74;46.63
59417;BME280;45222;52.458;20.914;2023-05-10T19:54:04;101213.08;;;9.61;46.95
59417;BME280;45222;52.458;20.914;2023-05-10T19:57:54;101212.10;;;9.47;47.11
59417;BME280;45222;52.458;20.914;2023-05-10T20:01:41;101214.45;;;9.33;47.46
59417;BME280;45222;52.458;20.914;2023-05-10T20:05:29;101221.01;;;9.22;47.69
59417;BME280;45222;52.458;20.914;2023-05-10T20:09:17;101220.80;;;9.10;48.20
59417;BME280;45222;52.458;20.914;2023-05-10T20:13:05;101221.50;;;8.98;48.95
59417;BME280;45222;52.458;20.914;2023-05-10T20:16:53;101224.15;;;8.86;49.62
59417;BME280;45222;52.458;20.914;2023-05-10T20:20:41;101225.87;;;8.75;50.05
59417;BME280;45222;52.458;20.914;2023-05-10T20:24:29;101225.65;;;8.63;50.34
59417;BME280;45222;52.458;20.914;2023-05-10T20:28:19;101221.14;;;8.52;50.42
59417;BME280;45222;52.458;20.914;2023-05-10T20:32:07;101223.89;;;8.41;50.72
59417;BME280;45222;52.458;20.914;2023-05-10T20:35:54;101231.02;;;8.32;51.38
59417;BME280;45222;52.458;20.914;2023-05-10T20:39:42;101231.05;;;8.24;51.80
59417;BME280;45222;52.458;20.914;2023-05-10T20:43:30;101227.52;;;8.16;51.71
59417;BME280;45222;52.458;20.914;2023-05-10T20:47:18;101227.01;;;8.08;52.42
59417;BME280;45222;52.458;20.914;2023-05-10T20:51:06;101232.54;;;8.00;52.81
59417;BME280;45222;52.458;20.914;2023-05-10T20:54:53;101231.02;;;7.89;53.61
59417;BME280;45222;52.458;20.914;2023-05-10T20:58:41;101235.34;;;7.78;53.25
59417;BME280;45222;52.458;20.914;2023-05-10T21:02:29;101239.48;;;7.67;53.70
59417;BME280;45222;52.458;20.914;2023-05-10T21:06:17;101242.80;;;7.61;53.49
59417;BME280;45222;52.458;20.914;2023-05-10T21:10:06;101245.20;;;7.57;54.18
59417;BME280;45222;52.458;20.914;2023-05-10T21:13:55;101246.75;;;7.50;54.92
59417;BME280;45222;52.458;20.914;2023-05-10T21:17:43;101255.39;;;7.43;55.57
59417;BME280;45222;52.458;20.914;2023-05-10T21:21:30;101257.27;;;7.38;55.52
59417;BME280;45222;52.458;20.914;2023-05-10T21:25:18;101258.41;;;7.34;55.79
59417;BME280;45222;52.458;20.914;2023-05-10T21:29:06;101260.73;;;7.33;56.05
59417;BME280;45222;52.458;20.914;2023-05-10T21:32:54;101259.02;;;7.31;55.75
59417;BME280;45222;52.458;20.914;2023-05-10T21:36:44;101260.98;;;7.29;55.62
59417;BME280;45222;52.458;20.914;2023-05-10T21:40:32;101261.43;;;7.33;54.71
59417;BME280;45222;52.458;20.914;2023-05-10T21:44:20;101265.10;;;7.36;54.22
59417;BME280;45222;52.458;20.914;2023-05-10T21:48:08;101264.94;;;7.44;53.31
59417;BME280;45222;52.458;20.914;2023-05-10T21:51:56;101270.61;;;7.44;53.52
59417;BME280;45222;52.458;20.914;2023-05-10T21:55:43;101272.16;;;7.45;53.84
59417;BME280;45222;52.458;20.914;2023-05-10T21:59:31;101273.45;;;7.43;54.01
59417;BME280;45222;52.458;20.914;2023-05-10T22:03:19;101274.27;;;7.38;54.28
59417;BME280;45222;52.458;20.914;2023-05-10T22:07:07;101276.67;;;7.33;54.48
59417;BME280;45222;52.458;20.914;2023-05-10T22:10:55;101278.58;;;7.26;54.85
59417;BME280;45222;52.458;20.914;2023-05-10T22:14:42;101285.25;;;7.20;55.77
59417;BME280;45222;52.458;20.914;2023-05-10T22:18:30;101287.52;;;7.12;57.18
59417;BME280;45222;52.458;20.914;2023-05-10T22:22:18;101289.63;;;7.03;57.43
59417;BME280;45222;52.458;20.914;2023-05-10T22:26:07;101296.89;;;6.94;57.58
59417;BME280;45222;52.458;20.914;2023-05-10T22:29:56;101297.20;;;6.86;58.32
59417;BME280;45222;52.458;20.914;2023-05-10T22:33:44;101301.95;;;6.77;58.85
59417;BME280;45222;52.458;20.914;2023-05-10T22:37:32;101304.56;;;6.69;58.94
59417;BME280;45222;52.458;20.914;2023-05-10T22:41:20;101306.27;;;6.63;58.86
59417;BME280;45222;52.458;20.914;2023-05-10T22:45:09;101310.27;;;6.55;59.33
59417;BME280;45222;52.458;20.914;2023-05-10T22:48:58;101312.69;;;6.49;59.19
59417;BME280;45222;52.458;20.914;2023-05-10T22:52:46;101314.40;;;6.41;59.49
59417;BME280;45222;52.458;20.914;2023-05-10T22:56:34;101310.27;;;6.34;59.71
59417;BME280;45222;52.458;20.914;2023-05-10T23:00:24;101313.92;;;6.26;59.88
59417;BME280;45222;52.458;20.914;2023-05-10T23:04:12;101315.80;;;6.19;59.86
59417;BME280;45222;52.458;20.914;2023-05-10T23:07:59;101315.04;;;6.11;59.86
59417;BME280;45222;52.458;20.914;2023-05-10T23:11:47;101320.43;;;6.03;60.19
59417;BME280;45222;52.458;20.914;2023-05-10T23:15:35;101320.39;;;5.93;60.55
59417;BME280;45222;52.458;20.914;2023-05-10T23:19:23;101324.07;;;5.81;60.55
59417;BME280;45222;52.458;20.914;2023-05-10T23:23:11;101324.23;;;5.69;60.65
59417;BME280;45222;52.458;20.914;2023-05-10T23:26:59;101322.25;;;5.58;61.48
59417;BME280;45222;52.458;20.914;2023-05-10T23:30:47;101326.63;;;5.47;61.08
59417;BME280;45222;52.458;20.914;2023-05-10T23:34:40;101325.27;;;5.41;61.31
59417;BME280;45222;52.458;20.914;2023-05-10T23:38:28;101325.85;;;5.37;61.57
59417;BME280;45222;52.458;20.914;2023-05-10T23:42:15;101328.73;;;5.33;62.09
59417;BME280;45222;52.458;20.914;2023-05-10T23:46:03;101332.08;;;5.33;62.44
59417;BME280;45222;52.458;20.914;2023-05-10T23:49:51;101332.41;;;5.35;62.60
59417;BME280;45222;52.458;20.914;2023-05-10T23:53:39;101328.89;;;5.34;62.74
59417;BME280;45222;52.458;20.914;2023-05-10T23:57:27;101329.10;;;5.31;62.77
